createdAt,value
2023-04-14T00:03:29.199Z,1.63
2023-04-14T00:08:31.786Z,1.47
2023-04-14T00:13:33.636Z,1.50
2023-04-14T00:18:35.775Z,1.50
2023-04-14T00:23:37.412Z,1.80
2023-04-14T00:28:39.247Z,2.03
2023-04-14T00:33:40.860Z,1.63
2023-04-14T00:38:42.441Z,2.07
2023-04-14T00:43:44.077Z,1.67
2023-04-14T00:48:45.812Z,1.70
2023-04-14T00:53:48.491Z,1.50
2023-04-14T00:58:51.969Z,1.60
2023-04-14T01:03:53.888Z,1.50
2023-04-14T01:08:57.680Z,1.50
2023-04-14T01:14:02.197Z,1.80
2023-04-14T01:19:37.486Z,1.50
2023-04-14T01:24:43.306Z,1.50
2023-04-14T01:30:22.424Z,1.70
2023-04-14T01:35:38.293Z,1.43
2023-04-14T01:40:41.897Z,1.70
2023-04-14T01:45:50.573Z,1.57
2023-04-14T01:50:53.471Z,1.90
2023-04-14T01:55:56.303Z,1.70
2023-04-14T02:00:58.956Z,1.60
2023-04-14T02:06:02.296Z,1.50
2023-04-14T02:11:05.218Z,1.63
2023-04-14T02:16:10.560Z,1.50
2023-04-14T02:21:14.228Z,1.37
2023-04-14T02:26:18.184Z,1.50
2023-04-14T02:31:23.877Z,1.87
2023-04-14T02:36:33.186Z,1.63
2023-04-14T02:41:37.031Z,1.60
2023-04-14T02:46:42.200Z,1.80
2023-04-14T02:51:45.318Z,2.00
2023-04-14T02:56:48.282Z,1.87
2023-04-14T03:01:52.730Z,1.70
2023-04-14T03:06:54.855Z,1.60
2023-04-14T03:11:57.783Z,2.30
2023-04-14T03:17:01.530Z,1.80
2023-04-14T03:22:04.545Z,1.90
2023-04-14T03:27:25.942Z,2.00
2023-04-14T03:32:33.660Z,1.70
2023-04-14T03:37:38.466Z,1.80
2023-04-14T03:42:44.714Z,1.70
2023-04-14T03:47:49.262Z,2.10
2023-04-14T03:52:53.159Z,1.80
2023-04-14T03:57:56.626Z,1.70
2023-04-14T04:03:01.322Z,1.80
2023-04-14T04:08:03.971Z,2.00
2023-04-14T04:13:19.484Z,1.87
2023-04-14T04:18:22.890Z,1.90
2023-04-14T04:23:25.868Z,1.90
2023-04-14T04:28:28.565Z,2.10
2023-04-14T04:33:41.408Z,2.23
2023-04-14T04:38:43.565Z,2.13
2023-04-14T04:43:47.092Z,1.90
2023-04-14T04:48:51.423Z,2.10
2023-04-14T04:53:53.115Z,2.20
2023-04-14T04:58:54.755Z,2.10
2023-04-14T05:03:56.886Z,1.90
2023-04-14T05:08:58.712Z,1.97
2023-04-14T05:14:01.442Z,1.80
2023-04-14T05:19:04.001Z,2.37
2023-04-14T05:24:07.207Z,1.80
2023-04-14T05:29:08.808Z,2.13
2023-04-14T05:34:10.393Z,2.23
2023-04-14T05:39:12.055Z,1.90
2023-04-14T05:44:13.645Z,2.30
2023-04-14T05:49:15.237Z,4.47
2023-04-14T05:54:16.930Z,2.07
2023-04-14T05:59:18.582Z,1.83
2023-04-14T06:04:20.673Z,1.40
2023-04-14T06:09:22.340Z,1.77
2023-04-14T06:14:24.328Z,1.30
2023-04-14T06:19:25.977Z,1.07
2023-04-14T06:24:27.682Z,0.90
2023-04-14T06:29:29.928Z,0.90
2023-04-14T06:34:31.529Z,1.07
2023-04-14T06:39:33.177Z,1.13
2023-04-14T06:46:36.061Z,2.97
2023-04-14T06:51:37.676Z,1.00
2023-04-14T06:56:39.281Z,1.00
2023-04-14T07:01:41.443Z,1.47
2023-04-14T07:06:43.026Z,0.90
2023-04-14T07:11:47.071Z,0.93
2023-04-14T07:16:48.673Z,0.93
2023-04-14T07:21:52.288Z,0.70
2023-04-14T07:26:53.824Z,1.00
2023-04-14T07:31:55.388Z,1.03
2023-04-14T07:36:56.987Z,0.90
2023-04-14T07:41:59.048Z,1.20
2023-04-14T07:47:00.796Z,2.47
2023-04-14T07:52:02.902Z,1.47
2023-04-14T07:57:04.436Z,1.43
2023-04-14T08:02:06.194Z,1.20
2023-04-14T08:07:08.014Z,1.00
2023-04-14T08:12:09.580Z,1.92
2023-04-14T08:17:11.313Z,1.48
2023-04-14T08:22:12.860Z,1.13
2023-04-14T08:27:14.458Z,0.80
2023-04-14T08:32:16.292Z,0.63
2023-04-14T08:37:19.562Z,0.80
2023-04-14T08:42:22.220Z,1.35
2023-04-14T08:47:24.485Z,1.83
2023-04-14T08:52:28.031Z,2.15
2023-04-14T08:57:31.523Z,0.70
2023-04-14T09:02:33.770Z,0.80
2023-04-14T09:07:36.383Z,1.77
2023-04-14T09:12:42.069Z,1.23
2023-04-14T09:17:44.175Z,1.17
2023-04-14T09:22:46.027Z,0.70
2023-04-14T09:27:50.822Z,1.07
2023-04-14T09:32:55.716Z,0.70
2023-04-14T09:37:57.291Z,0.80
2023-04-14T09:42:59.948Z,1.37
2023-04-14T09:48:06.852Z,1.23
2023-04-14T09:53:08.671Z,0.77
2023-04-14T09:58:10.692Z,0.90
2023-04-14T10:03:12.341Z,2.30
2023-04-14T10:08:14.110Z,0.80
2023-04-14T10:13:16.080Z,0.83
2023-04-14T10:18:17.718Z,0.70
2023-04-14T10:23:19.326Z,1.60
2023-04-14T10:28:22.344Z,1.73
2023-04-14T10:33:24.864Z,1.70
2023-04-14T10:38:42.514Z,0.80
2023-04-14T10:43:44.096Z,0.50
2023-04-14T10:48:48.657Z,0.53
2023-04-14T10:53:52.384Z,1.03
2023-04-14T10:58:56.239Z,0.60
2023-04-14T11:03:59.286Z,1.43
2023-04-14T11:09:02.905Z,0.77
2023-04-14T11:14:11.048Z,0.57
2023-04-14T11:19:15.693Z,0.53
2023-04-14T11:24:18.114Z,1.33
2023-04-14T11:29:19.810Z,1.37
2023-04-14T11:34:25.891Z,1.00
2023-04-14T11:39:29.833Z,0.53
2023-04-14T11:44:31.901Z,0.67
2023-04-14T11:49:35.149Z,0.40
2023-04-14T11:54:39.132Z,0.63
2023-04-14T11:59:45.240Z,0.83
2023-04-14T12:04:48.538Z,0.67
2023-04-14T12:09:52.268Z,1.27
2023-04-14T12:14:54.014Z,0.40
2023-04-14T12:19:55.720Z,0.57
2023-04-14T12:24:57.906Z,0.97
2023-04-14T12:29:59.542Z,0.50
2023-04-14T12:35:01.747Z,0.50
2023-04-14T12:40:06.662Z,0.40
2023-04-14T12:45:09.496Z,0.73
2023-04-14T12:50:24.646Z,0.60
2023-04-14T12:55:28.385Z,0.70
2023-04-14T13:00:30.030Z,0.53
2023-04-14T13:05:31.678Z,0.53
2023-04-14T13:10:33.220Z,0.63
2023-04-14T13:16:14.083Z,0.40
2023-04-14T13:20:56.423Z,0.50
2023-04-14T13:25:58.176Z,1.10
2023-04-14T13:30:59.874Z,0.60
2023-04-14T13:36:03.241Z,0.80
2023-04-14T13:41:04.971Z,1.83
2023-04-14T13:46:06.622Z,0.30
2023-04-14T13:51:08.332Z,1.67
2023-04-14T13:56:10.322Z,0.70
2023-04-14T14:01:12.277Z,0.60
2023-04-14T14:06:14.371Z,0.70
2023-04-14T14:11:16.027Z,0.60
2023-04-14T14:16:33.110Z,0.63
2023-04-14T14:21:38.147Z,0.80
2023-04-14T14:26:39.912Z,0.60
2023-04-14T14:31:41.573Z,0.90
2023-04-14T14:36:45.983Z,1.90
2023-04-14T14:41:47.992Z,0.73
2023-04-14T14:46:52.700Z,0.40
2023-04-14T14:51:54.504Z,0.57
2023-04-14T14:56:57.474Z,0.37
2023-04-14T15:01:59.194Z,0.50
2023-04-14T15:07:01.120Z,0.30
2023-04-14T15:12:02.673Z,0.73
2023-04-14T15:17:04.279Z,1.03
2023-04-14T15:22:05.803Z,0.80
2023-04-14T15:27:07.424Z,0.50
2023-04-14T15:32:09.028Z,0.30
2023-04-14T15:37:11.029Z,0.40
2023-04-14T15:42:12.655Z,0.37
2023-04-14T15:47:14.330Z,1.03
2023-04-14T15:52:15.937Z,0.53
2023-04-14T15:57:17.796Z,1.70
2023-04-14T16:02:19.410Z,1.27
2023-04-14T16:07:21.169Z,0.30
2023-04-14T16:12:23.471Z,0.37
2023-04-14T16:17:25.569Z,0.50
2023-04-14T16:22:29.398Z,0.83
2023-04-14T16:27:34.430Z,0.30
2023-04-14T16:32:36.180Z,0.70
2023-04-14T16:37:38.135Z,0.40
2023-04-14T16:42:39.655Z,0.33
2023-04-14T16:47:41.658Z,0.57
2023-04-14T16:52:43.227Z,0.40
2023-04-14T16:57:44.824Z,0.27
2023-04-14T17:02:46.720Z,0.30
2023-04-14T17:07:49.058Z,0.70
2023-04-14T17:12:50.696Z,0.60
2023-04-14T17:17:52.314Z,2.90
2023-04-14T17:22:54.612Z,1.50
2023-04-14T17:27:56.189Z,0.90
2023-04-14T17:32:57.826Z,0.77
2023-04-14T17:37:59.601Z,1.17
2023-04-14T17:43:01.225Z,1.20
2023-04-14T17:48:03.748Z,1.73
2023-04-14T17:53:05.349Z,1.90
2023-04-14T17:58:07.388Z,1.87
2023-04-14T18:03:09.162Z,1.47
2023-04-14T18:08:11.379Z,0.70
2023-04-14T18:13:13.037Z,1.17
2023-04-14T18:18:14.927Z,1.43
2023-04-14T18:23:17.514Z,1.80
2023-04-14T18:28:19.087Z,1.03
2023-04-14T18:33:21.141Z,2.00
2023-04-14T18:38:24.101Z,0.77
2023-04-14T18:43:25.803Z,0.83
2023-04-14T18:48:27.789Z,0.60
2023-04-14T18:53:29.514Z,0.77
2023-04-14T18:58:31.219Z,0.73
2023-04-14T19:03:32.812Z,0.80
2023-04-14T19:08:34.377Z,1.00
2023-04-14T19:13:35.963Z,0.90
2023-04-14T19:18:37.574Z,0.70
2023-04-14T19:23:40.864Z,1.00
2023-04-14T19:28:42.666Z,0.73
2023-04-14T19:33:44.319Z,1.00
2023-04-14T19:38:46.078Z,0.97
2023-04-14T19:43:47.695Z,1.27
2023-04-14T19:48:49.363Z,1.00
2023-04-14T19:53:51.655Z,1.63
2023-04-14T19:58:54.178Z,4.37
2023-04-14T20:04:05.504Z,1.83
2023-04-14T20:09:13.720Z,1.60
2023-04-14T20:14:16.238Z,1.30
2023-04-14T20:19:17.849Z,1.50
2023-04-14T20:24:19.983Z,2.00
2023-04-14T20:29:23.376Z,1.60
2023-04-14T20:34:26.570Z,1.40
2023-04-14T20:39:28.329Z,1.30
2023-04-14T20:44:31.322Z,2.00
2023-04-14T20:49:33.000Z,1.80
2023-04-14T20:54:34.618Z,1.60
2023-04-14T20:59:36.289Z,2.17
2023-04-14T21:04:38.050Z,1.70
2023-04-14T21:09:39.987Z,1.80
2023-04-14T21:15:40.427Z,2.50
2023-04-14T21:20:04.405Z,1.87
2023-04-14T21:25:06.662Z,1.70
2023-04-14T21:30:11.288Z,2.00
2023-04-14T21:35:12.880Z,1.80
2023-04-14T21:40:14.666Z,1.47
2023-04-14T21:45:18.579Z,1.70
2023-04-14T21:50:20.179Z,1.50
2023-04-14T21:55:21.790Z,1.80
2023-04-14T22:00:26.102Z,1.80
2023-04-14T22:06:17.593Z,1.73
2023-04-14T22:11:19.400Z,2.00
2023-04-14T22:16:20.991Z,2.00
2023-04-14T22:21:25.684Z,3.53
2023-04-14T22:26:27.480Z,2.40
2023-04-14T22:31:29.514Z,3.27
2023-04-14T22:36:31.792Z,2.83
2023-04-14T22:41:33.699Z,1.90
2023-04-14T22:46:35.547Z,1.47
2023-04-14T22:51:37.556Z,2.47
2023-04-14T22:56:40.940Z,2.30
2023-04-14T23:01:42.654Z,3.37
2023-04-14T23:06:47.304Z,3.37
2023-04-14T23:11:49.396Z,3.30
2023-04-14T23:16:51.071Z,3.90
2023-04-14T23:21:53.116Z,2.13
2023-04-14T23:26:54.819Z,2.10
2023-04-14T23:31:56.673Z,2.20
2023-04-14T23:36:59.113Z,2.00
2023-04-14T23:42:00.796Z,2.00
2023-04-14T23:47:02.452Z,1.97
2023-04-14T23:52:04.623Z,2.77
2023-04-14T23:57:06.656Z,2.07
